Harbinger, NC (27941)

11:23 PM EDT on April 17, 2015 (GMT -0400)
The Compound | | Change Station
CLOSE
Current Station
Personal Weather Station
Location: Point Harbor, NC
Elevation: 13 ft
Nearby Weather Stations

Elev 13 ft 36.09 °N, 75.79 °W | Updated 45 seconds ago

Partly Cloudy
Partly Cloudy
68.7 °F
Feels Like 68.7 °F
N
0.0
Wind Variable Wind from SSW
Gusts 0.0 mph

Today
High -- | Low -- °F
--% Chance of Precip.
Yesterday
High -- | Low -- °F
Precip. -- in
6:27 AM 7:38 PM
Waning Crescent, 1% visible
Pressure 30.00 in
Visibility 7.0 miles
Clouds Clear
Dew Point 56 °F
Humidity 65%
Rainfall 9.21 in
Snow Depth Not available.
UV 0 out of 12
Pollen 7.60 out of 12
Air Quality Not available.
Flu Activity Sporadic
METAR KFFA 180315Z AUTO 00000KT 7SM CLR 18/17 A3000 RMK AO2 T01840169

More Conditions Fewer Conditions

Pressure 30.00 in
Visibility 7.0 miles
Clouds Clear
Dew Point 56 °F
Humidity 65%
Rainfall 9.21 in
Snow Depth Not available.
UV 0 out of 12
Pollen 7.60 out of 12
Air Quality Not available.
Flu Activity Sporadic
METAR KFFA 180315Z AUTO 00000KT 7SM CLR 18/17 A3000 RMK AO2 T01840169

More Conditions Fewer Conditions

10-Day Weather Forecast

Almanac

Astronomy

Apr. 17, 2015 Rise Set
Actual Time
Civil Twilight
Nautical Twilight
Astronomical Twilight
Moon
Length of Visible Light
Length of Day
Tomorrow will be .
, % of the Moon is Illuminated

Today's Extremes

State Highs State Lows

Community

WunderPhotos

Upload Photos

1,814,315 photos uploaded!

WunderBlogs® & News

Nearby

Air Quality

  Air Quality AQ Index Pollutant
Not available.

Snow Depth

Station Depth Elevation

Earthquake Activity

City Distance Mag. Time & Date
Minimum magnitude displayed is 2.5.

Coastal Water Temperatures

Place Temperature

Stations

Nearby Weather Stations

Station Location Temp. Windchill Dew Point Humidity Wind Precip. Elev Updated Type